Etusivu
METAR-TAF:

METAR-TAF

Lentoasemat :

Dakar, Senegal

Leveyspiiri: 14-40-16N, Pituuspiiri: 17-04-01W, korkeus merenpinnasta: 88 m

Tämänhetkinen sää

Tämä raportti tehtiin 22 minuuttia sitten, kello 11.00 UTC
Tuuli 19 kn koillisesta
Lämpötila 33°C
Kosteus 17%
Ilmanpaine 1012 hPa
Näkyvyys: 8000 m

METAR: GOBD 141100Z 04019KT 8000 NSC 33/05 Q1012 NOSIG

Aika: 11:22 (11:22 UTC)

Sääennuste

Tämä raportti tehtiin 5 tuntia ja 52 minuuttia sitten, kello 05.30 UTC
Ennuste voimassa 14. päivästä klo 06 UTC - 15. päivään klo 12 UTC
Tuuli 16 kn pohjoisesta
Näkyvyys: 8000 m

TAF: GOBD 140530Z 1406/1512 01016KT 8000 NSC

Säähavainnot ja -ennusteet yli 4000 lentoasemalta (METAR- ja TAF-raportit).

Käytössä olevat sääasemat on merkitty karttaan keltaisilla ja punaisilla pisteillä.

Aseta hiiri pisteen päälle nähdäksesi sääaseman nimen.

Klikkaa sitten nähdäksesi säähavainnot ja -ennusteet.

Kartan vaihtaminen: klikkaa mustalla rastilla varustettuja vihreitä pisteitä, niin voit zoomata sisään; viivalla varustettua vihreää pistettä, niin voit zoomata ulos tai vihreitä nuolia, niin pääset viereisille kartoille.


METAR-TAF: